sensor_id;sensor_type;location;lat;lon;timestamp;temperature;humidity
67027;DHT22;53933;52.142;11.738;2022-07-29T00:01:14;26.20;46.20
67027;DHT22;53933;52.142;11.738;2022-07-29T00:03:43;26.10;45.50
67027;DHT22;53933;52.142;11.738;2022-07-29T00:06:09;26.10;45.50
67027;DHT22;53933;52.142;11.738;2022-07-29T00:08:36;26.10;45.50
67027;DHT22;53933;52.142;11.738;2022-07-29T00:11:03;26.10;45.40
67027;DHT22;53933;52.142;11.738;2022-07-29T00:13:30;26.10;45.40
67027;DHT22;53933;52.142;11.738;2022-07-29T00:15:56;26.10;45.40
67027;DHT22;53933;52.142;11.738;2022-07-29T00:18:23;26.10;45.30
67027;DHT22;53933;52.142;11.738;2022-07-29T00:20:51;26.10;45.40
67027;DHT22;53933;52.142;11.738;2022-07-29T00:23:17;26.10;45.70
67027;DHT22;53933;52.142;11.738;2022-07-29T00:25:44;26.10;45.60
67027;DHT22;53933;52.142;11.738;2022-07-29T00:28:10;26.10;45.40
67027;DHT22;53933;52.142;11.738;2022-07-29T00:30:37;26.10;45.30
67027;DHT22;53933;52.142;11.738;2022-07-29T00:33:04;26.10;46.20
67027;DHT22;53933;52.142;11.738;2022-07-29T00:35:30;26.10;45.40
67027;DHT22;53933;52.142;11.738;2022-07-29T00:38:14;26.10;45.40
67027;DHT22;53933;52.142;11.738;2022-07-29T00:40:41;26.10;45.40
67027;DHT22;53933;52.142;11.738;2022-07-29T00:43:08;26.10;45.50
67027;DHT22;53933;52.142;11.738;2022-07-29T00:45:35;26.10;45.40
67027;DHT22;53933;52.142;11.738;2022-07-29T00:48:02;26.10;45.50
67027;DHT22;53933;52.142;11.738;2022-07-29T00:50:30;26.10;45.90
67027;DHT22;53933;52.142;11.738;2022-07-29T00:52:58;26.00;45.50
67027;DHT22;53933;52.142;11.738;2022-07-29T00:55:26;26.00;45.30
67027;DHT22;53933;52.142;11.738;2022-07-29T00:57:53;26.00;45.30
67027;DHT22;53933;52.142;11.738;2022-07-29T01:00:23;26.00;45.30
67027;DHT22;53933;52.142;11.738;2022-07-29T01:02:50;26.00;45.30
67027;DHT22;53933;52.142;11.738;2022-07-29T01:05:20;26.00;45.20
67027;DHT22;53933;52.142;11.738;2022-07-29T01:07:49;26.00;45.40
67027;DHT22;53933;52.142;11.738;2022-07-29T01:10:16;26.00;45.20
67027;DHT22;53933;52.142;11.738;2022-07-29T01:12:47;26.00;45.10
67027;DHT22;53933;52.142;11.738;2022-07-29T01:15:15;26.00;45.00
67027;DHT22;53933;52.142;11.738;2022-07-29T01:17:44;26.00;45.20
67027;DHT22;53933;52.142;11.738;2022-07-29T01:20:15;26.00;45.10
67027;DHT22;53933;52.142;11.738;2022-07-29T01:22:59;26.00;45.00
67027;DHT22;53933;52.142;11.738;2022-07-29T01:28:46;26.00;44.90
67027;DHT22;53933;52.142;11.738;2022-07-29T01:31:16;26.00;44.80
67027;DHT22;53933;52.142;11.738;2022-07-29T01:33:45;26.00;44.80
67027;DHT22;53933;52.142;11.738;2022-07-29T01:36:17;26.00;44.80
67027;DHT22;53933;52.142;11.738;2022-07-29T01:38:54;26.00;44.60
67027;DHT22;53933;52.142;11.738;2022-07-29T01:41:21;26.00;44.60
67027;DHT22;53933;52.142;11.738;2022-07-29T01:43:54;26.00;44.60
67027;DHT22;53933;52.142;11.738;2022-07-29T01:46:27;26.00;44.60
67027;DHT22;53933;52.142;11.738;2022-07-29T01:48:57;26.00;44.70
67027;DHT22;53933;52.142;11.738;2022-07-29T01:51:31;26.00;44.60
67027;DHT22;53933;52.142;11.738;2022-07-29T01:54:02;25.90;44.80
67027;DHT22;53933;52.142;11.738;2022-07-29T01:56:32;25.90;44.80
67027;DHT22;53933;52.142;11.738;2022-07-29T01:59:01;25.90;44.70
67027;DHT22;53933;52.142;11.738;2022-07-29T02:01:29;25.90;44.70
67027;DHT22;53933;52.142;11.738;2022-07-29T02:03:57;25.90;44.80
67027;DHT22;53933;52.142;11.738;2022-07-29T02:06:26;25.90;44.80
67027;DHT22;53933;52.142;11.738;2022-07-29T02:08:54;25.90;44.80
67027;DHT22;53933;52.142;11.738;2022-07-29T02:11:22;25.90;44.90
67027;DHT22;53933;52.142;11.738;2022-07-29T02:13:50;25.90;45.10
67027;DHT22;53933;52.142;11.738;2022-07-29T02:16:21;25.90;45.10
67027;DHT22;53933;52.142;11.738;2022-07-29T02:18:51;25.90;45.30
67027;DHT22;53933;52.142;11.738;2022-07-29T02:21:22;25.90;45.20
67027;DHT22;53933;52.142;11.738;2022-07-29T02:23:51;25.90;45.30
67027;DHT22;53933;52.142;11.738;2022-07-29T02:26:20;25.90;45.10
67027;DHT22;53933;52.142;11.738;2022-07-29T02:28:50;25.90;45.20
67027;DHT22;53933;52.142;11.738;2022-07-29T02:31:21;25.80;45.90
67027;DHT22;53933;52.142;11.738;2022-07-29T02:33:49;25.80;45.20
67027;DHT22;53933;52.142;11.738;2022-07-29T02:36:20;25.90;45.40
67027;DHT22;53933;52.142;11.738;2022-07-29T02:38:48;25.80;45.20
67027;DHT22;53933;52.142;11.738;2022-07-29T02:41:24;25.80;45.30
67027;DHT22;53933;52.142;11.738;2022-07-29T02:43:55;25.80;45.30
67027;DHT22;53933;52.142;11.738;2022-07-29T02:46:28;25.80;45.40
67027;DHT22;53933;52.142;11.738;2022-07-29T02:48:59;25.80;45.40
67027;DHT22;53933;52.142;11.738;2022-07-29T02:51:33;25.80;45.80
67027;DHT22;53933;52.142;11.738;2022-07-29T02:54:06;25.80;45.80
67027;DHT22;53933;52.142;11.738;2022-07-29T02:56:34;25.80;45.80
67027;DHT22;53933;52.142;11.738;2022-07-29T02:59:06;25.80;46.10
67027;DHT22;53933;52.142;11.738;2022-07-29T03:01:40;25.80;46.00
67027;DHT22;53933;52.142;11.738;2022-07-29T03:04:08;25.80;46.20
67027;DHT22;53933;52.142;11.738;2022-07-29T03:06:37;25.80;46.10
67027;DHT22;53933;52.142;11.738;2022-07-29T03:09:06;25.80;46.20
67027;DHT22;53933;52.142;11.738;2022-07-29T03:11:34;25.80;46.30
67027;DHT22;53933;52.142;11.738;2022-07-29T03:14:01;25.80;46.30
67027;DHT22;53933;52.142;11.738;2022-07-29T03:16:29;25.80;46.30
67027;DHT22;53933;52.142;11.738;2022-07-29T03:18:57;25.80;46.40
67027;DHT22;53933;52.142;11.738;2022-07-29T03:21:24;25.80;46.40
67027;DHT22;53933;52.142;11.738;2022-07-29T03:23:50;25.80;46.50
67027;DHT22;53933;52.142;11.738;2022-07-29T03:26:18;25.80;46.40
67027;DHT22;53933;52.142;11.738;2022-07-29T03:28:45;25.80;46.50
67027;DHT22;53933;52.142;11.738;2022-07-29T03:31:12;25.80;46.40
67027;DHT22;53933;52.142;11.738;2022-07-29T03:33:38;25.80;46.50
67027;DHT22;53933;52.142;11.738;2022-07-29T03:36:06;25.70;46.40
67027;DHT22;53933;52.142;11.738;2022-07-29T03:38:35;25.70;46.70
67027;DHT22;53933;52.142;11.738;2022-07-29T03:41:05;25.70;46.90
67027;DHT22;53933;52.142;11.738;2022-07-29T03:43:37;25.70;46.90
67027;DHT22;53933;52.142;11.738;2022-07-29T03:46:06;25.70;46.80
67027;DHT22;53933;52.142;11.738;2022-07-29T03:48:36;25.70;46.70
67027;DHT22;53933;52.142;11.738;2022-07-29T03:51:06;25.70;46.80
67027;DHT22;53933;52.142;11.738;2022-07-29T03:53:33;25.70;46.70
67027;DHT22;53933;52.142;11.738;2022-07-29T03:56:02;25.70;46.70
67027;DHT22;53933;52.142;11.738;2022-07-29T03:58:30;25.70;46.60
67027;DHT22;53933;52.142;11.738;2022-07-29T04:00:58;25.70;46.60
67027;DHT22;53933;52.142;11.738;2022-07-29T04:03:25;25.70;46.60
67027;DHT22;53933;52.142;11.738;2022-07-29T04:05:59;25.70;46.60
67027;DHT22;53933;52.142;11.738;2022-07-29T04:08:27;25.70;46.60
67027;DHT22;53933;52.142;11.738;2022-07-29T04:10:54;25.70;46.60
67027;DHT22;53933;52.142;11.738;2022-07-29T04:13:20;25.70;46.60
67027;DHT22;53933;52.142;11.738;2022-07-29T04:15:47;25.70;46.50
67027;DHT22;53933;52.142;11.738;2022-07-29T04:18:14;25.70;46.60
67027;DHT22;53933;52.142;11.738;2022-07-29T04:20:40;25.70;46.60
67027;DHT22;53933;52.142;11.738;2022-07-29T04:23:07;25.70;46.70
67027;DHT22;53933;52.142;11.738;2022-07-29T04:25:38;25.70;46.80
67027;DHT22;53933;52.142;11.738;2022-07-29T04:28:05;25.70;46.80
67027;DHT22;53933;52.142;11.738;2022-07-29T04:30:32;25.70;46.80
67027;DHT22;53933;52.142;11.738;2022-07-29T04:33:00;25.70;47.10
67027;DHT22;53933;52.142;11.738;2022-07-29T04:35:27;25.70;47.20
67027;DHT22;53933;52.142;11.738;2022-07-29T04:37:53;25.80;47.20
67027;DHT22;53933;52.142;11.738;2022-07-29T04:40:20;25.80;47.20
67027;DHT22;53933;52.142;11.738;2022-07-29T04:42:48;25.80;47.20
67027;DHT22;53933;52.142;11.738;2022-07-29T04:45:14;25.80;47.20
67027;DHT22;53933;52.142;11.738;2022-07-29T04:47:41;25.80;47.20
67027;DHT22;53933;52.142;11.738;2022-07-29T04:50:09;25.80;47.20
67027;DHT22;53933;52.142;11.738;2022-07-29T04:52:35;25.80;47.30
67027;DHT22;53933;52.142;11.738;2022-07-29T04:55:03;25.80;47.30
67027;DHT22;53933;52.142;11.738;2022-07-29T04:57:29;25.80;47.40
67027;DHT22;53933;52.142;11.738;2022-07-29T04:59:57;25.80;47.50
67027;DHT22;53933;52.142;11.738;2022-07-29T05:02:24;25.80;47.50
67027;DHT22;53933;52.142;11.738;2022-07-29T05:04:51;25.80;47.50
67027;DHT22;53933;52.142;11.738;2022-07-29T05:07:17;25.80;47.60
67027;DHT22;53933;52.142;11.738;2022-07-29T05:09:44;25.80;47.60
67027;DHT22;53933;52.142;11.738;2022-07-29T05:12:10;25.80;47.60
67027;DHT22;53933;52.142;11.738;2022-07-29T05:14:37;25.80;48.00
67027;DHT22;53933;52.142;11.738;2022-07-29T05:17:05;25.80;48.20
67027;DHT22;53933;52.142;11.738;2022-07-29T05:19:31;25.90;48.50
67027;DHT22;53933;52.142;11.738;2022-07-29T05:21:58;25.90;48.30
67027;DHT22;53933;52.142;11.738;2022-07-29T05:24:25;25.90;48.20
67027;DHT22;53933;52.142;11.738;2022-07-29T05:26:52;25.90;48.20
67027;DHT22;53933;52.142;11.738;2022-07-29T05:29:18;25.90;48.10
67027;DHT22;53933;52.142;11.738;2022-07-29T05:31:45;25.90;48.00
67027;DHT22;53933;52.142;11.738;2022-07-29T05:34:13;25.90;47.90
67027;DHT22;53933;52.142;11.738;2022-07-29T05:36:39;25.90;47.90
67027;DHT22;53933;52.142;11.738;2022-07-29T05:39:06;25.90;47.90
67027;DHT22;53933;52.142;11.738;2022-07-29T05:41:32;25.90;48.00
67027;DHT22;53933;52.142;11.738;2022-07-29T05:43:59;25.90;48.20
67027;DHT22;53933;52.142;11.738;2022-07-29T05:46:26;25.60;47.70
67027;DHT22;53933;52.142;11.738;2022-07-29T05:48:52;24.90;47.70
67027;DHT22;53933;52.142;11.738;2022-07-29T05:51:20;24.30;48.80
67027;DHT22;53933;52.142;11.738;2022-07-29T05:53:47;23.90;49.70
67027;DHT22;53933;52.142;11.738;2022-07-29T05:56:13;23.60;50.60
67027;DHT22;53933;52.142;11.738;2022-07-29T05:58:40;23.30;51.10
67027;DHT22;53933;52.142;11.738;2022-07-29T06:01:06;23.10;51.60
67027;DHT22;53933;52.142;11.738;2022-07-29T06:03:33;23.00;52.00
67027;DHT22;53933;52.142;11.738;2022-07-29T06:06:00;22.90;52.20
67027;DHT22;53933;52.142;11.738;2022-07-29T06:08:28;22.80;52.40
67027;DHT22;53933;52.142;11.738;2022-07-29T06:10:54;22.80;52.60
67027;DHT22;53933;52.142;11.738;2022-07-29T06:13:21;22.80;52.60
67027;DHT22;53933;52.142;11.738;2022-07-29T06:15:47;22.70;52.90
67027;DHT22;53933;52.142;11.738;2022-07-29T06:18:14;22.70;53.00
67027;DHT22;53933;52.142;11.738;2022-07-29T06:20:41;22.80;53.10
67027;DHT22;53933;52.142;11.738;2022-07-29T06:23:08;22.90;54.30
67027;DHT22;53933;52.142;11.738;2022-07-29T06:25:36;23.10;53.50
67027;DHT22;53933;52.142;11.738;2022-07-29T06:28:03;23.30;53.40
67027;DHT22;53933;52.142;11.738;2022-07-29T06:30:30;23.50;52.30
67027;DHT22;53933;52.142;11.738;2022-07-29T06:32:57;23.40;52.10
67027;DHT22;53933;52.142;11.738;2022-07-29T06:35:23;23.40;52.10
67027;DHT22;53933;52.142;11.738;2022-07-29T06:37:50;23.50;52.00
67027;DHT22;53933;52.142;11.738;2022-07-29T06:40:17;23.60;51.60
67027;DHT22;53933;52.142;11.738;2022-07-29T06:43:17;23.70;51.40
67027;DHT22;53933;52.142;11.738;2022-07-29T06:45:44;23.90;51.20
67027;DHT22;53933;52.142;11.738;2022-07-29T06:48:10;24.10;51.00
67027;DHT22;53933;52.142;11.738;2022-07-29T06:50:37;24.20;50.60
67027;DHT22;53933;52.142;11.738;2022-07-29T06:53:05;24.20;50.60
67027;DHT22;53933;52.142;11.738;2022-07-29T06:55:31;24.20;50.40
67027;DHT22;53933;52.142;11.738;2022-07-29T06:57:58;24.10;50.50
67027;DHT22;53933;52.142;11.738;2022-07-29T07:00:26;23.90;50.90
67027;DHT22;53933;52.142;11.738;2022-07-29T07:02:52;23.60;51.30
67027;DHT22;53933;52.142;11.738;2022-07-29T07:05:19;23.50;51.70
67027;DHT22;53933;52.142;11.738;2022-07-29T07:07:45;23.40;52.00
67027;DHT22;53933;52.142;11.738;2022-07-29T07:10:12;23.30;52.00
67027;DHT22;53933;52.142;11.738;2022-07-29T07:12:39;23.30;52.00
67027;DHT22;53933;52.142;11.738;2022-07-29T07:15:06;23.30;52.00
67027;DHT22;53933;52.142;11.738;2022-07-29T07:17:34;23.30;52.10
67027;DHT22;53933;52.142;11.738;2022-07-29T07:20:01;23.40;52.10
67027;DHT22;53933;52.142;11.738;2022-07-29T07:22:27;23.70;52.60
67027;DHT22;53933;52.142;11.738;2022-07-29T07:24:54;24.00;51.20
67027;DHT22;53933;52.142;11.738;2022-07-29T07:27:20;24.40;50.40
67027;DHT22;53933;52.142;11.738;2022-07-29T07:29:47;24.70;49.60
67027;DHT22;53933;52.142;11.738;2022-07-29T07:32:14;25.00;49.00
67027;DHT22;53933;52.142;11.738;2022-07-29T07:34:43;25.30;48.50
67027;DHT22;53933;52.142;11.738;2022-07-29T07:37:09;25.50;48.90
67027;DHT22;53933;52.142;11.738;2022-07-29T07:39:36;25.50;47.90
67027;DHT22;53933;52.142;11.738;2022-07-29T07:42:03;25.50;47.90
67027;DHT22;53933;52.142;11.738;2022-07-29T07:44:29;25.50;47.80
67027;DHT22;53933;52.142;11.738;2022-07-29T07:46:56;25.50;47.70
67027;DHT22;53933;52.142;11.738;2022-07-29T07:49:22;25.40;47.80
67027;DHT22;53933;52.142;11.738;2022-07-29T07:51:51;25.30;47.80
67027;DHT22;53933;52.142;11.738;2022-07-29T07:54:17;25.30;47.90
67027;DHT22;53933;52.142;11.738;2022-07-29T07:56:44;25.30;47.90
67027;DHT22;53933;52.142;11.738;2022-07-29T07:59:11;25.20;48.00
67027;DHT22;53933;52.142;11.738;2022-07-29T08:01:37;25.30;48.20
67027;DHT22;53933;52.142;11.738;2022-07-29T08:04:04;25.30;48.10
67027;DHT22;53933;52.142;11.738;2022-07-29T08:06:31;25.30;48.10
67027;DHT22;53933;52.142;11.738;2022-07-29T08:09:02;25.40;47.90
67027;DHT22;53933;52.142;11.738;2022-07-29T08:11:29;25.70;48.10
67027;DHT22;53933;52.142;11.738;2022-07-29T08:13:55;25.90;47.50
67027;DHT22;53933;52.142;11.738;2022-07-29T08:16:22;26.10;47.20
67027;DHT22;53933;52.142;11.738;2022-07-29T08:18:51;26.30;46.50
67027;DHT22;53933;52.142;11.738;2022-07-29T08:21:22;26.50;46.20
67027;DHT22;53933;52.142;11.738;2022-07-29T08:23:49;26.60;45.80
67027;DHT22;53933;52.142;11.738;2022-07-29T08:26:19;26.60;45.70
67027;DHT22;53933;52.142;11.738;2022-07-29T08:28:48;26.70;45.80
67027;DHT22;53933;52.142;11.738;2022-07-29T08:31:16;26.80;45.80
67027;DHT22;53933;52.142;11.738;2022-07-29T08:33:44;26.90;45.80
67027;DHT22;53933;52.142;11.738;2022-07-29T08:36:10;26.90;45.40
67027;DHT22;53933;52.142;11.738;2022-07-29T08:38:38;27.00;45.40
67027;DHT22;53933;52.142;11.738;2022-07-29T08:41:04;27.10;45.20
67027;DHT22;53933;52.142;11.738;2022-07-29T08:43:33;27.20;45.20
67027;DHT22;53933;52.142;11.738;2022-07-29T08:46:02;27.30;45.00
67027;DHT22;53933;52.142;11.738;2022-07-29T08:48:29;27.40;44.90
67027;DHT22;53933;52.142;11.738;2022-07-29T08:50:56;27.60;44.80
67027;DHT22;53933;52.142;11.738;2022-07-29T08:53:25;27.70;44.50
67027;DHT22;53933;52.142;11.738;2022-07-29T08:55:53;27.90;44.40
67027;DHT22;53933;52.142;11.738;2022-07-29T08:58:21;28.00;44.30
67027;DHT22;53933;52.142;11.738;2022-07-29T09:00:51;28.10;44.90
67027;DHT22;53933;52.142;11.738;2022-07-29T09:03:20;28.20;44.10
67027;DHT22;53933;52.142;11.738;2022-07-29T09:05:48;28.40;45.10
67027;DHT22;53933;52.142;11.738;2022-07-29T09:08:15;28.50;45.00
67027;DHT22;53933;52.142;11.738;2022-07-29T09:10:42;28.60;44.70
67027;DHT22;53933;52.142;11.738;2022-07-29T09:13:09;28.80;44.10
67027;DHT22;53933;52.142;11.738;2022-07-29T09:15:36;29.00;44.00
67027;DHT22;53933;52.142;11.738;2022-07-29T09:18:04;29.20;43.60
67027;DHT22;53933;52.142;11.738;2022-07-29T09:20:30;29.40;43.30
67027;DHT22;53933;52.142;11.738;2022-07-29T09:23:11;29.50;43.20
67027;DHT22;53933;52.142;11.738;2022-07-29T09:25:40;29.50;42.70
67027;DHT22;53933;52.142;11.738;2022-07-29T09:28:07;29.70;42.90
67027;DHT22;53933;52.142;11.738;2022-07-29T09:30:34;29.90;42.80
67027;DHT22;53933;52.142;11.738;2022-07-29T09:33:03;30.00;42.50
67027;DHT22;53933;52.142;11.738;2022-07-29T09:35:30;30.00;42.50
67027;DHT22;53933;52.142;11.738;2022-07-29T09:37:57;30.10;42.10
67027;DHT22;53933;52.142;11.738;2022-07-29T09:40:26;30.20;42.30
67027;DHT22;53933;52.142;11.738;2022-07-29T09:42:54;30.30;41.90
67027;DHT22;53933;52.142;11.738;2022-07-29T09:45:30;30.40;41.70
67027;DHT22;53933;52.142;11.738;2022-07-29T09:47:57;30.50;41.20
67027;DHT22;53933;52.142;11.738;2022-07-29T09:50:36;30.60;40.80
67027;DHT22;53933;52.142;11.738;2022-07-29T09:53:03;30.80;40.40
67027;DHT22;53933;52.142;11.738;2022-07-29T09:55:30;30.90;40.20
67027;DHT22;53933;52.142;11.738;2022-07-29T09:58:15;30.90;40.50
67027;DHT22;53933;52.142;11.738;2022-07-29T10:00:43;31.00;40.00
67027;DHT22;53933;52.142;11.738;2022-07-29T10:03:09;31.00;40.40
67027;DHT22;53933;52.142;11.738;2022-07-29T10:05:38;31.00;40.10
67027;DHT22;53933;52.142;11.738;2022-07-29T10:08:07;31.00;39.50
67027;DHT22;53933;52.142;11.738;2022-07-29T10:10:36;31.00;39.80
67027;DHT22;53933;52.142;11.738;2022-07-29T10:13:04;31.00;39.60
67027;DHT22;53933;52.142;11.738;2022-07-29T10:15:33;31.00;39.30
67027;DHT22;53933;52.142;11.738;2022-07-29T10:18:02;30.80;39.50
67027;DHT22;53933;52.142;11.738;2022-07-29T10:20:29;30.80;39.70
67027;DHT22;53933;52.142;11.738;2022-07-29T10:22:57;30.70;38.20
67027;DHT22;53933;52.142;11.738;2022-07-29T10:25:24;30.70;38.60
67027;DHT22;53933;52.142;11.738;2022-07-29T10:27:52;30.60;39.00
67027;DHT22;53933;52.142;11.738;2022-07-29T10:30:21;30.50;39.10
67027;DHT22;53933;52.142;11.738;2022-07-29T10:33:10;30.50;38.50
67027;DHT22;53933;52.142;11.738;2022-07-29T10:38:48;30.30;38.00
67027;DHT22;53933;52.142;11.738;2022-07-29T10:41:34;30.20;37.90
67027;DHT22;53933;52.142;11.738;2022-07-29T10:44:05;30.10;38.90
67027;DHT22;53933;52.142;11.738;2022-07-29T10:46:35;30.00;39.20
67027;DHT22;53933;52.142;11.738;2022-07-29T10:49:09;29.90;39.20
67027;DHT22;53933;52.142;11.738;2022-07-29T10:51:57;29.90;38.40
67027;DHT22;53933;52.142;11.738;2022-07-29T10:54:56;29.90;38.00
67027;DHT22;53933;52.142;11.738;2022-07-29T10:57:26;29.80;38.60
67027;DHT22;53933;52.142;11.738;2022-07-29T11:00:25;29.80;37.70
67027;DHT22;53933;52.142;11.738;2022-07-29T11:02:52;29.80;38.30
67027;DHT22;53933;52.142;11.738;2022-07-29T11:05:21;29.70;38.20
67027;DHT22;53933;52.142;11.738;2022-07-29T11:08:18;29.70;38.30
67027;DHT22;53933;52.142;11.738;2022-07-29T11:10:47;29.60;38.40
67027;DHT22;53933;52.142;11.738;2022-07-29T11:13:45;29.60;39.20
67027;DHT22;53933;52.142;11.738;2022-07-29T11:16:13;29.60;39.00
67027;DHT22;53933;52.142;11.738;2022-07-29T11:21:41;29.60;39.10
67027;DHT22;53933;52.142;11.738;2022-07-29T11:24:11;29.60;38.70
67027;DHT22;53933;52.142;11.738;2022-07-29T11:26:40;29.60;38.90
67027;DHT22;53933;52.142;11.738;2022-07-29T11:29:17;29.50;38.20
67027;DHT22;53933;52.142;11.738;2022-07-29T11:31:46;29.50;38.20
67027;DHT22;53933;52.142;11.738;2022-07-29T11:34:25;29.50;37.90
67027;DHT22;53933;52.142;11.738;2022-07-29T11:37:18;29.60;38.00
67027;DHT22;53933;52.142;11.738;2022-07-29T11:39:46;29.60;37.90
67027;DHT22;53933;52.142;11.738;2022-07-29T11:42:39;29.60;38.30
67027;DHT22;53933;52.142;11.738;2022-07-29T11:45:07;29.60;38.00
67027;DHT22;53933;52.142;11.738;2022-07-29T11:47:36;29.60;38.10
67027;DHT22;53933;52.142;11.738;2022-07-29T11:50:05;29.60;38.20
67027;DHT22;53933;52.142;11.738;2022-07-29T11:52:32;29.60;38.10
67027;DHT22;53933;52.142;11.738;2022-07-29T11:55:04;29.50;36.60
67027;DHT22;53933;52.142;11.738;2022-07-29T11:57:31;29.50;37.40
67027;DHT22;53933;52.142;11.738;2022-07-29T12:00:01;29.50;37.60
67027;DHT22;53933;52.142;11.738;2022-07-29T12:02:38;29.50;37.60
67027;DHT22;53933;52.142;11.738;2022-07-29T12:05:08;29.50;37.30
67027;DHT22;53933;52.142;11.738;2022-07-29T12:07:35;29.50;37.80
67027;DHT22;53933;52.142;11.738;2022-07-29T12:10:03;29.50;37.50
67027;DHT22;53933;52.142;11.738;2022-07-29T12:12:30;29.50;35.70
67027;DHT22;53933;52.142;11.738;2022-07-29T12:14:56;29.50;35.70
67027;DHT22;53933;52.142;11.738;2022-07-29T12:17:29;29.60;36.50
67027;DHT22;53933;52.142;11.738;2022-07-29T12:19:56;29.50;36.50
67027;DHT22;53933;52.142;11.738;2022-07-29T12:22:27;29.50;36.90
67027;DHT22;53933;52.142;11.738;2022-07-29T12:24:54;29.50;36.90
67027;DHT22;53933;52.142;11.738;2022-07-29T12:27:22;29.50;37.00
67027;DHT22;53933;52.142;11.738;2022-07-29T12:29:55;29.50;37.10
67027;DHT22;53933;52.142;11.738;2022-07-29T12:32:22;29.50;37.70
67027;DHT22;53933;52.142;11.738;2022-07-29T12:34:51;29.50;37.40
67027;DHT22;53933;52.142;11.738;2022-07-29T12:37:18;29.50;37.80
67027;DHT22;53933;52.142;11.738;2022-07-29T12:39:45;29.40;37.10
67027;DHT22;53933;52.142;11.738;2022-07-29T12:42:13;29.40;37.20
67027;DHT22;53933;52.142;11.738;2022-07-29T12:44:45;29.40;37.50
67027;DHT22;53933;52.142;11.738;2022-07-29T12:47:11;29.40;37.50
67027;DHT22;53933;52.142;11.738;2022-07-29T12:49:38;29.40;37.70
67027;DHT22;53933;52.142;11.738;2022-07-29T12:52:27;29.40;36.90
67027;DHT22;53933;52.142;11.738;2022-07-29T12:54:54;29.40;37.10
67027;DHT22;53933;52.142;11.738;2022-07-29T12:57:21;29.40;37.60
67027;DHT22;53933;52.142;11.738;2022-07-29T13:00:06;29.40;37.50
67027;DHT22;53933;52.142;11.738;2022-07-29T13:02:34;29.40;37.30
67027;DHT22;53933;52.142;11.738;2022-07-29T13:05:01;29.40;37.10
67027;DHT22;53933;52.142;11.738;2022-07-29T13:07:32;29.30;37.30
67027;DHT22;53933;52.142;11.738;2022-07-29T13:10:11;29.40;37.60
67027;DHT22;53933;52.142;11.738;2022-07-29T13:12:38;29.30;37.10
67027;DHT22;53933;52.142;11.738;2022-07-29T13:15:13;29.40;37.50
67027;DHT22;53933;52.142;11.738;2022-07-29T13:17:41;29.40;37.60
67027;DHT22;53933;52.142;11.738;2022-07-29T13:20:10;29.30;37.60
67027;DHT22;53933;52.142;11.738;2022-07-29T13:22:41;29.30;37.90
67027;DHT22;53933;52.142;11.738;2022-07-29T13:25:09;29.30;37.90
67027;DHT22;53933;52.142;11.738;2022-07-29T13:27:38;29.30;37.90
67027;DHT22;53933;52.142;11.738;2022-07-29T13:30:07;29.30;37.40
67027;DHT22;53933;52.142;11.738;2022-07-29T13:32:37;29.30;37.20
67027;DHT22;53933;52.142;11.738;2022-07-29T13:35:06;29.30;37.90
67027;DHT22;53933;52.142;11.738;2022-07-29T13:37:34;29.40;38.10
67027;DHT22;53933;52.142;11.738;2022-07-29T13:40:06;29.30;37.90
67027;DHT22;53933;52.142;11.738;2022-07-29T13:42:33;29.30;37.70
67027;DHT22;53933;52.142;11.738;2022-07-29T13:45:00;29.30;38.30
67027;DHT22;53933;52.142;11.738;2022-07-29T13:47:27;29.30;38.50
67027;DHT22;53933;52.142;11.738;2022-07-29T13:49:54;29.30;38.20
67027;DHT22;53933;52.142;11.738;2022-07-29T13:52:21;29.30;37.90
67027;DHT22;53933;52.142;11.738;2022-07-29T13:54:48;29.30;38.50
67027;DHT22;53933;52.142;11.738;2022-07-29T13:57:16;29.30;38.20
67027;DHT22;53933;52.142;11.738;2022-07-29T13:59:42;29.30;38.20
67027;DHT22;53933;52.142;11.738;2022-07-29T14:02:12;29.30;37.90
67027;DHT22;53933;52.142;11.738;2022-07-29T14:04:39;29.30;37.60
67027;DHT22;53933;52.142;11.738;2022-07-29T14:07:06;29.30;38.00
67027;DHT22;53933;52.142;11.738;2022-07-29T14:09:33;29.30;37.90
67027;DHT22;53933;52.142;11.738;2022-07-29T14:11:59;29.30;37.80
67027;DHT22;53933;52.142;11.738;2022-07-29T14:14:29;29.30;37.40
67027;DHT22;53933;52.142;11.738;2022-07-29T14:16:57;29.30;37.90
67027;DHT22;53933;52.142;11.738;2022-07-29T14:19:23;29.20;37.80
67027;DHT22;53933;52.142;11.738;2022-07-29T14:21:50;29.20;38.20
67027;DHT22;53933;52.142;11.738;2022-07-29T14:24:16;29.20;37.80
67027;DHT22;53933;52.142;11.738;2022-07-29T14:26:43;29.20;38.30
67027;DHT22;53933;52.142;11.738;2022-07-29T14:29:10;29.20;39.20
67027;DHT22;53933;52.142;11.738;2022-07-29T14:31:39;29.20;38.50
67027;DHT22;53933;52.142;11.738;2022-07-29T14:34:05;29.20;38.10
67027;DHT22;53933;52.142;11.738;2022-07-29T14:36:32;29.20;38.60
67027;DHT22;53933;52.142;11.738;2022-07-29T14:38:59;29.20;39.00
67027;DHT22;53933;52.142;11.738;2022-07-29T14:41:25;29.10;38.30
67027;DHT22;53933;52.142;11.738;2022-07-29T14:43:53;29.10;38.10
67027;DHT22;53933;52.142;11.738;2022-07-29T14:46:20;29.10;38.00
67027;DHT22;53933;52.142;11.738;2022-07-29T14:48:48;29.10;38.00
67027;DHT22;53933;52.142;11.738;2022-07-29T14:51:14;29.10;37.70
67027;DHT22;53933;52.142;11.738;2022-07-29T14:53:41;29.10;38.10
67027;DHT22;53933;52.142;11.738;2022-07-29T14:56:09;29.10;37.70
67027;DHT22;53933;52.142;11.738;2022-07-29T14:58:35;29.00;37.60
67027;DHT22;53933;52.142;11.738;2022-07-29T15:01:02;29.00;38.30
67027;DHT22;53933;52.142;11.738;2022-07-29T15:03:29;29.00;39.10
67027;DHT22;53933;52.142;11.738;2022-07-29T15:05:56;29.00;38.50
67027;DHT22;53933;52.142;11.738;2022-07-29T15:08:23;29.00;38.40
67027;DHT22;53933;52.142;11.738;2022-07-29T15:10:50;29.00;38.60
67027;DHT22;53933;52.142;11.738;2022-07-29T15:13:17;29.00;38.50
67027;DHT22;53933;52.142;11.738;2022-07-29T15:15:44;28.90;38.50
67027;DHT22;53933;52.142;11.738;2022-07-29T15:18:11;29.00;38.40
67027;DHT22;53933;52.142;11.738;2022-07-29T15:20:37;29.00;38.40
67027;DHT22;53933;52.142;11.738;2022-07-29T15:23:05;28.90;38.30
67027;DHT22;53933;52.142;11.738;2022-07-29T15:25:35;29.00;38.40
67027;DHT22;53933;52.142;11.738;2022-07-29T15:28:02;29.00;38.50
67027;DHT22;53933;52.142;11.738;2022-07-29T15:30:33;29.00;38.30
67027;DHT22;53933;52.142;11.738;2022-07-29T15:33:00;29.00;38.30
67027;DHT22;53933;52.142;11.738;2022-07-29T15:35:27;29.00;38.50